PWSweather.com
Personal Weather Stations
Station Observations

SaroSE

Lat: 57.5222, Lon: 11.947

Elevation: 35

Station Type: Davis VP2

http://www.lokaltvader.se/

High Low Average
Temperature 59.6°F15.3°C 54.4°F12.4°C 56.4°F13.6°C
Dew Point 58.7°F14.8°C 50.3°F10.2°C 54.9°F12.7°C
Winds 19.6 mph 31.5 kmh Calm Calm 10.0 mph SE16.1 kmh SE
Wind Gusts 28.8 mph46.3 kmh -- 14.0 mph22.5 kmh
Humidity 97% 84% 95%
Pressure 29.79 in1008.8 mb 29.61 in1002.7 mb -
Precipitation 0.95 in24.1 mm - -
Hour Temp Dew Point Humidity Winds Wind Gusts Pressure Precip Precip Rate Daily Precip Total
12:00 AM 55.1°F12.8°C 50.4°F10.2°C 84% 15.0 mph ESE24.1 kmh ESE 25.3 mph40.7 kmh 29.79 in1008.8 mb - 0.00 in0.0 mm 0.00 in0.0 mm
12:15 AM 54.7°F12.6°C 50.3°F10.2°C 85% 12.7 mph ESE20.4 kmh ESE 19.6 mph31.5 kmh 29.79 in1008.8 mb - 0.00 in0.0 mm 0.00 in0.0 mm
12:30 AM 54.6°F12.6°C 50.5°F10.3°C 86% 16.1 mph ESE25.9 kmh ESE 23.0 mph37.0 kmh 29.79 in1008.8 mb - 0.00 in0.0 mm 0.00 in0.0 mm
12:45 AM 54.6°F12.6°C 50.5°F10.3°C 86% 16.1 mph ESE25.9 kmh ESE 20.7 mph33.3 kmh 29.79 in1008.8 mb - 0.00 in0.0 mm 0.00 in0.0 mm
01:00 AM 54.6°F12.6°C 50.5°F10.3°C 86% 15.0 mph E24.1 kmh E 18.4 mph29.6 kmh 29.78 in1008.5 mb - 0.00 in0.0 mm 0.00 in0.0 mm
01:15 AM 54.7°F12.6°C 50.9°F10.5°C 87% 12.7 mph ESE20.4 kmh ESE 24.2 mph38.9 kmh 29.77 in1008.1 mb - 0.00 in0.0 mm 0.00 in0.0 mm
01:30 AM 54.7°F12.6°C 50.9°F10.5°C 87% 19.6 mph ESE31.5 kmh ESE 28.8 mph46.3 kmh 29.77 in1008.1 mb - 0.00 in0.0 mm 0.00 in0.0 mm
01:45 AM 54.8°F12.7°C 51.0°F10.6°C 87% 18.4 mph ESE29.6 kmh ESE 21.9 mph35.2 kmh 29.76 in1007.8 mb - 0.00 in0.0 mm 0.00 in0.0 mm
02:00 AM 54.6°F12.6°C 51.1°F10.6°C 88% 16.1 mph E25.9 kmh E 23.0 mph37.0 kmh 29.76 in1007.8 mb - 0.00 in0.0 mm 0.00 in0.0 mm
02:15 AM 54.4°F12.4°C 51.2°F10.7°C 89% 18.4 mph ESE29.6 kmh ESE 24.2 mph38.9 kmh 29.75 in1007.5 mb - 0.00 in0.0 mm 0.00 in0.0 mm
02:30 AM 54.5°F12.5°C 51.6°F10.9°C 90% 15.0 mph ESE24.1 kmh ESE 26.5 mph42.6 kmh 29.75 in1007.5 mb - 0.00 in0.0 mm 0.00 in0.0 mm
02:45 AM 54.8°F12.7°C 51.6°F10.9°C 89% 18.4 mph ESE29.6 kmh ESE 21.9 mph35.2 kmh 29.74 in1007.1 mb - 0.00 in0.0 mm 0.00 in0.0 mm
03:00 AM 55.0°F12.8°C 51.8°F11.0°C 89% 13.8 mph ESE22.2 kmh ESE 19.6 mph31.5 kmh 29.74 in1007.1 mb - 0.00 in0.0 mm 0.00 in0.0 mm
03:15 AM 55.1°F12.8°C 51.9°F11.1°C 89% 15.0 mph ESE24.1 kmh ESE 19.6 mph31.5 kmh 29.73 in1006.8 mb - 0.00 in0.0 mm 0.00 in0.0 mm
03:30 AM 55.0°F12.8°C 52.1°F11.2°C 90% 15.0 mph ESE24.1 kmh ESE 20.7 mph33.3 kmh 29.73 in1006.8 mb - 0.00 in0.0 mm 0.00 in0.0 mm
03:45 AM 54.8°F12.7°C 52.2°F11.2°C 91% 17.3 mph ESE27.8 kmh ESE 20.7 mph33.3 kmh 29.72 in1006.4 mb - 0.01 in0.3 mm 0.01 in0.3 mm
04:00 AM 54.7°F12.6°C 52.4°F11.3°C 92% 16.1 mph ESE25.9 kmh ESE 19.6 mph31.5 kmh 29.72 in1006.4 mb - 0.02 in0.5 mm 0.02 in0.5 mm
04:15 AM 54.7°F12.6°C 52.7°F11.5°C 93% 17.3 mph ESE27.8 kmh ESE 20.7 mph33.3 kmh 29.72 in1006.4 mb - 0.02 in0.5 mm 0.02 in0.5 mm
04:30 AM 54.7°F12.6°C 52.7°F11.5°C 93% 11.5 mph ESE18.5 kmh ESE 15.0 mph24.1 kmh 29.71 in1006.1 mb - 0.03 in0.8 mm 0.03 in0.8 mm
04:45 AM 54.8°F12.7°C 53.1°F11.7°C 94% 15.0 mph ESE24.1 kmh ESE 17.3 mph27.8 kmh 29.71 in1006.1 mb - 0.02 in0.5 mm 0.03 in0.8 mm
05:00 AM 55.1°F12.8°C 53.4°F11.9°C 94% 10.4 mph ESE16.7 kmh ESE 17.3 mph27.8 kmh 29.70 in1005.8 mb - 0.02 in0.5 mm 0.03 in0.8 mm
05:15 AM 55.2°F12.9°C 53.5°F11.9°C 94% 12.7 mph SE20.4 kmh SE 18.4 mph29.6 kmh 29.70 in1005.8 mb - 0.01 in0.3 mm 0.03 in0.8 mm
05:30 AM 55.5°F13.1°C 54.1°F12.3°C 95% 15.0 mph SE24.1 kmh SE 16.1 mph25.9 kmh 29.69 in1005.4 mb - 0.00 in0.0 mm 0.03 in0.8 mm
05:45 AM 55.7°F13.2°C 54.0°F12.2°C 94% 10.4 mph SE16.7 kmh SE 19.6 mph31.5 kmh 29.69 in1005.4 mb - 0.01 in0.3 mm 0.04 in1.0 mm
06:00 AM 55.8°F13.2°C 54.4°F12.4°C 95% 9.2 mph SE14.8 kmh SE 15.0 mph24.1 kmh 29.69 in1005.4 mb - 0.01 in0.3 mm 0.04 in1.0 mm
06:15 AM 55.8°F13.2°C 54.4°F12.4°C 95% 12.7 mph SE20.4 kmh SE 15.0 mph24.1 kmh 29.69 in1005.4 mb - 0.01 in0.3 mm 0.04 in1.0 mm
06:30 AM 55.9°F13.3°C 54.5°F12.5°C 95% 13.8 mph ESE22.2 kmh ESE 19.6 mph31.5 kmh 29.68 in1005.1 mb - 0.02 in0.5 mm 0.05 in1.3 mm
06:45 AM 56.0°F13.3°C 54.6°F12.6°C 95% 15.0 mph ESE24.1 kmh ESE 18.4 mph29.6 kmh 29.68 in1005.1 mb - 0.02 in0.5 mm 0.06 in1.5 mm
07:00 AM 56.1°F13.4°C 54.7°F12.6°C 95% 16.1 mph SE25.9 kmh SE 19.6 mph31.5 kmh 29.68 in1005.1 mb - 0.06 in1.5 mm 0.09 in2.3 mm
07:15 AM 56.2°F13.4°C 55.1°F12.8°C 96% 15.0 mph ESE24.1 kmh ESE 19.6 mph31.5 kmh 29.68 in1005.1 mb - 0.09 in2.3 mm 0.13 in3.3 mm
07:30 AM 56.3°F13.5°C 55.2°F12.9°C 96% 12.7 mph ESE20.4 kmh ESE 16.1 mph25.9 kmh 29.67 in1004.7 mb - 0.12 in3.0 mm 0.16 in4.1 mm
07:45 AM 56.4°F13.6°C 55.3°F12.9°C 96% 16.1 mph SE25.9 kmh SE 19.6 mph31.5 kmh 29.67 in1004.7 mb - 0.13 in3.3 mm 0.19 in4.8 mm
08:00 AM 56.5°F13.6°C 55.4°F13.0°C 96% 10.4 mph SE16.7 kmh SE 13.8 mph22.2 kmh 29.67 in1004.7 mb - 0.13 in3.3 mm 0.22 in5.6 mm
08:15 AM 56.5°F13.6°C 55.4°F13.0°C 96% 13.8 mph SE22.2 kmh SE 16.1 mph25.9 kmh 29.67 in1004.7 mb - 0.13 in3.3 mm 0.25 in6.4 mm
08:30 AM 56.6°F13.7°C 55.5°F13.1°C 96% 12.7 mph ESE20.4 kmh ESE 16.1 mph25.9 kmh 29.67 in1004.7 mb - 0.20 in5.1 mm 0.36 in9.1 mm
08:45 AM 56.6°F13.7°C 55.5°F13.1°C 96% 9.2 mph ESE14.8 kmh ESE 15.0 mph24.1 kmh 29.67 in1004.7 mb - 0.24 in6.1 mm 0.43 in10.9 mm
09:00 AM 56.7°F13.7°C 55.6°F13.1°C 96% 9.2 mph SE14.8 kmh SE 15.0 mph24.1 kmh 29.67 in1004.7 mb - 0.28 in7.1 mm 0.50 in12.7 mm
09:15 AM 56.8°F13.8°C 55.7°F13.2°C 96% 10.4 mph ESE16.7 kmh ESE 15.0 mph24.1 kmh 29.66 in1004.4 mb - 0.28 in7.1 mm 0.53 in13.5 mm
09:30 AM 56.9°F13.8°C 55.8°F13.2°C 96% 11.5 mph ESE18.5 kmh ESE 19.6 mph31.5 kmh 29.66 in1004.4 mb - 0.19 in4.8 mm 0.54 in13.7 mm
09:45 AM 57.0°F13.9°C 56.2°F13.4°C 97% 12.7 mph ESE20.4 kmh ESE 18.4 mph29.6 kmh 29.65 in1004.1 mb - 0.14 in3.6 mm 0.58 in14.7 mm
10:00 AM 57.1°F13.9°C 56.3°F13.5°C 97% 10.4 mph ESE16.7 kmh ESE 11.5 mph18.5 kmh 29.65 in1004.1 mb - 0.16 in4.1 mm 0.65 in16.5 mm
10:15 AM 57.0°F13.9°C 56.2°F13.4°C 97% 8.1 mph ESE13.0 kmh ESE 10.4 mph16.7 kmh 29.64 in1003.7 mb - 0.17 in4.3 mm 0.69 in17.5 mm
10:30 AM 57.1°F13.9°C 56.3°F13.5°C 97% 10.4 mph ESE16.7 kmh ESE 12.7 mph20.4 kmh 29.63 in1003.4 mb - 0.17 in4.3 mm 0.70 in17.8 mm
10:45 AM 57.2°F14.0°C 56.4°F13.6°C 97% 13.8 mph ESE22.2 kmh ESE 19.6 mph31.5 kmh 29.63 in1003.4 mb - 0.15 in3.8 mm 0.72 in18.3 mm
11:00 AM 57.2°F14.0°C 56.4°F13.6°C 97% 13.8 mph SE22.2 kmh SE 16.1 mph25.9 kmh 29.63 in1003.4 mb - 0.09 in2.3 mm 0.75 in19.1 mm
11:15 AM 57.2°F14.0°C 56.4°F13.6°C 97% 12.7 mph ESE20.4 kmh ESE 13.8 mph22.2 kmh 29.63 in1003.4 mb - 0.08 in2.0 mm 0.77 in19.6 mm
11:30 AM 57.3°F14.1°C 56.5°F13.6°C 97% 12.7 mph ESE20.4 kmh ESE 15.0 mph24.1 kmh 29.63 in1003.4 mb - 0.09 in2.3 mm 0.79 in20.1 mm
11:45 AM 57.3°F14.1°C 56.5°F13.6°C 97% 11.5 mph SE18.5 kmh SE 12.7 mph20.4 kmh 29.63 in1003.4 mb - 0.06 in1.5 mm 0.79 in20.1 mm
12:00 PM 57.5°F14.2°C 56.7°F13.7°C 97% 8.1 mph SE13.0 kmh SE 12.7 mph20.4 kmh 29.63 in1003.4 mb - 0.05 in1.3 mm 0.80 in20.3 mm
12:15 PM 57.6°F14.2°C 56.8°F13.8°C 97% 5.8 mph SE9.3 kmh SE 10.4 mph16.7 kmh 29.62 in1003.0 mb - 0.04 in1.0 mm 0.81 in20.6 mm
12:30 PM 57.7°F14.3°C 56.9°F13.8°C 97% 5.8 mph SE9.3 kmh SE 11.5 mph18.5 kmh 29.62 in1003.0 mb - 0.04 in1.0 mm 0.83 in21.1 mm
12:45 PM 57.8°F14.3°C 57.0°F13.9°C 97% 5.8 mph SE9.3 kmh SE 11.5 mph18.5 kmh 29.62 in1003.0 mb - 0.05 in1.3 mm 0.84 in21.3 mm
01:00 PM 57.9°F14.4°C 57.1°F13.9°C 97% 6.9 mph SE11.1 kmh SE 10.4 mph16.7 kmh 29.61 in1002.7 mb - 0.06 in1.5 mm 0.86 in21.8 mm
01:15 PM 58.0°F14.4°C 57.2°F14.0°C 97% 5.8 mph S9.3 kmh S 10.4 mph16.7 kmh 29.61 in1002.7 mb - 0.10 in2.5 mm 0.91 in23.1 mm
01:30 PM 58.2°F14.6°C 57.4°F14.1°C 97% 4.6 mph SSE7.4 kmh SSE 8.1 mph13.0 kmh 29.61 in1002.7 mb - 0.11 in2.8 mm 0.94 in23.9 mm
01:45 PM 58.3°F14.6°C 57.5°F14.2°C 97% 12.7 mph S20.4 kmh S 11.5 mph18.5 kmh 29.61 in1002.7 mb - 0.11 in2.8 mm 0.95 in24.1 mm
02:00 PM 58.5°F14.7°C 57.7°F14.3°C 97% 11.5 mph SSE18.5 kmh SSE 15.0 mph24.1 kmh 29.61 in1002.7 mb - 0.09 in2.3 mm 0.95 in24.1 mm
02:15 PM 58.6°F14.8°C 57.8°F14.3°C 97% 6.9 mph S11.1 kmh S 8.1 mph13.0 kmh 29.61 in1002.7 mb - 0.04 in1.0 mm 0.95 in24.1 mm
02:30 PM 58.6°F14.8°C 57.8°F14.3°C 97% 6.9 mph S11.1 kmh S 10.4 mph16.7 kmh 29.61 in1002.7 mb - 0.02 in0.5 mm 0.95 in24.1 mm
02:45 PM 58.7°F14.8°C 57.8°F14.3°C 97% 9.2 mph S14.8 kmh S 12.7 mph20.4 kmh 29.61 in1002.7 mb - 0.02 in0.5 mm 0.95 in24.1 mm
03:00 PM 58.5°F14.7°C 57.7°F14.3°C 97% 6.9 mph S11.1 kmh S 11.5 mph18.5 kmh 29.61 in1002.7 mb - 0.00 in0.0 mm 0.95 in24.1 mm
03:15 PM 59.0°F15.0°C 58.2°F14.6°C 97% 8.1 mph SW13.0 kmh SW 11.5 mph18.5 kmh 29.61 in1002.7 mb - 0.00 in0.0 mm 0.95 in24.1 mm
03:30 PM 59.6°F15.3°C 58.7°F14.8°C 97% 4.6 mph SW7.4 kmh SW 9.2 mph14.8 kmh 29.61 in1002.7 mb - 0.00 in0.0 mm 0.95 in24.1 mm
03:45 PM 58.5°F14.7°C 57.7°F14.3°C 97% 3.5 mph SW5.6 kmh SW 4.6 mph7.4 kmh 29.61 in1002.7 mb - 0.00 in0.0 mm 0.95 in24.1 mm
04:00 PM 59.0°F15.0°C 58.2°F14.6°C 97% 3.5 mph SW5.6 kmh SW 6.9 mph11.1 kmh 29.61 in1002.7 mb - 0.00 in0.0 mm 0.95 in24.1 mm
04:15 PM 58.9°F14.9°C 57.8°F14.3°C 96% 4.6 mph SSW7.4 kmh SSW 6.9 mph11.1 kmh 29.61 in1002.7 mb - 0.00 in0.0 mm 0.95 in24.1 mm
04:30 PM 59.2°F15.1°C 58.1°F14.5°C 96% 4.6 mph SSW7.4 kmh SSW 5.8 mph9.3 kmh 29.61 in1002.7 mb - 0.00 in0.0 mm 0.95 in24.1 mm
04:45 PM 58.7°F14.8°C 57.6°F14.2°C 96% 3.5 mph SSW5.6 kmh SSW 4.6 mph7.4 kmh 29.61 in1002.7 mb - 0.00 in0.0 mm 0.95 in24.1 mm
05:00 PM 58.3°F14.6°C 57.2°F14.0°C 96% 2.3 mph SSW3.7 kmh SSW 3.5 mph5.6 kmh 29.61 in1002.7 mb - 0.00 in0.0 mm 0.95 in24.1 mm
05:15 PM 57.8°F14.3°C 56.4°F13.6°C 95% Calm Calm -- 29.61 in1002.7 mb - 0.00 in0.0 mm 0.95 in24.1 mm
05:30 PM 57.3°F14.1°C 55.9°F13.3°C 95% 4.6 mph S7.4 kmh S 3.5 mph5.6 kmh 29.62 in1003.0 mb - 0.00 in0.0 mm 0.95 in24.1 mm
05:45 PM 56.6°F13.7°C 55.2°F12.9°C 95% 4.6 mph SSE7.4 kmh SSE 4.6 mph7.4 kmh 29.62 in1003.0 mb - 0.00 in0.0 mm 0.95 in24.1 mm
06:00 PM 56.2°F13.4°C 54.8°F12.7°C 95% 5.8 mph SSE9.3 kmh SSE 8.1 mph13.0 kmh 29.62 in1003.0 mb - 0.00 in0.0 mm 0.95 in24.1 mm
06:15 PM 55.6°F13.1°C 54.2°F12.3°C 95% 4.6 mph SSE7.4 kmh SSE 6.9 mph11.1 kmh 29.62 in1003.0 mb - 0.00 in0.0 mm 0.95 in24.1 mm
06:30 PM 55.1°F12.8°C 53.7°F12.1°C 95% 2.3 mph SSE3.7 kmh SSE 3.5 mph5.6 kmh 29.62 in1003.0 mb - 0.00 in0.0 mm 0.95 in24.1 mm
06:45 PM 54.7°F12.6°C 53.3°F11.8°C 95% 6.9 mph SE11.1 kmh SE 8.1 mph13.0 kmh 29.63 in1003.4 mb - 0.00 in0.0 mm 0.95 in24.1 mm
07:00 PM 55.3°F12.9°C 54.2°F12.3°C 96% 6.9 mph SE11.1 kmh SE 9.2 mph14.8 kmh 29.63 in1003.4 mb - 0.00 in0.0 mm 0.95 in24.1 mm
07:15 PM 55.5°F13.1°C 54.4°F12.4°C 96% 8.1 mph SE13.0 kmh SE 8.1 mph13.0 kmh 29.63 in1003.4 mb - 0.00 in0.0 mm 0.95 in24.1 mm
07:30 PM 55.8°F13.2°C 54.7°F12.6°C 96% 6.9 mph SE11.1 kmh SE 10.4 mph16.7 kmh 29.63 in1003.4 mb - 0.00 in0.0 mm 0.95 in24.1 mm
07:45 PM 55.8°F13.2°C 54.7°F12.6°C 96% 8.1 mph SE13.0 kmh SE 9.2 mph14.8 kmh 29.63 in1003.4 mb - 0.00 in0.0 mm 0.95 in24.1 mm
08:00 PM 55.8°F13.2°C 54.7°F12.6°C 96% 8.1 mph SSE13.0 kmh SSE 10.4 mph16.7 kmh 29.64 in1003.7 mb - 0.00 in0.0 mm 0.95 in24.1 mm
08:15 PM 56.1°F13.4°C 55.0°F12.8°C 96% 4.6 mph SSE7.4 kmh SSE 4.6 mph7.4 kmh 29.64 in1003.7 mb - 0.00 in0.0 mm 0.95 in24.1 mm
08:30 PM 56.1°F13.4°C 55.0°F12.8°C 96% 8.1 mph SE13.0 kmh SE 10.4 mph16.7 kmh 29.64 in1003.7 mb - 0.00 in0.0 mm 0.95 in24.1 mm
08:45 PM 56.3°F13.5°C 55.5°F13.1°C 97% 6.9 mph SE11.1 kmh SE 8.1 mph13.0 kmh 29.64 in1003.7 mb - 0.00 in0.0 mm 0.95 in24.1 mm
09:00 PM 56.0°F13.3°C 54.9°F12.7°C 96% 9.2 mph SE14.8 kmh SE 11.5 mph18.5 kmh 29.64 in1003.7 mb - 0.00 in0.0 mm 0.95 in24.1 mm
09:15 PM 55.8°F13.2°C 55.0°F12.8°C 97% 6.9 mph SE11.1 kmh SE 8.1 mph13.0 kmh 29.64 in1003.7 mb - 0.00 in0.0 mm 0.95 in24.1 mm
09:30 PM 55.8°F13.2°C 55.0°F12.8°C 97% 5.8 mph SE9.3 kmh SE 8.1 mph13.0 kmh 29.64 in1003.7 mb - 0.00 in0.0 mm 0.95 in24.1 mm
09:45 PM 55.6°F13.1°C 54.8°F12.7°C 97% 6.9 mph SE11.1 kmh SE 8.1 mph13.0 kmh 29.65 in1004.1 mb - 0.00 in0.0 mm 0.95 in24.1 mm
10:00 PM 55.5°F13.1°C 54.7°F12.6°C 97% 9.2 mph SE14.8 kmh SE 11.5 mph18.5 kmh 29.65 in1004.1 mb - 0.00 in0.0 mm 0.95 in24.1 mm
10:15 PM 55.6°F13.1°C 54.8°F12.7°C 97% 8.1 mph SSE13.0 kmh SSE 9.2 mph14.8 kmh 29.65 in1004.1 mb - 0.00 in0.0 mm 0.95 in24.1 mm
10:30 PM 55.9°F13.3°C 55.1°F12.8°C 97% 9.2 mph SSE14.8 kmh SSE 13.8 mph22.2 kmh 29.65 in1004.1 mb - 0.00 in0.0 mm 0.95 in24.1 mm
10:45 PM 56.1°F13.4°C 55.3°F12.9°C 97% 6.9 mph SE11.1 kmh SE 9.2 mph14.8 kmh 29.65 in1004.1 mb - 0.00 in0.0 mm 0.95 in24.1 mm
11:00 PM 55.8°F13.2°C 55.0°F12.8°C 97% 6.9 mph SSE11.1 kmh SSE 9.2 mph14.8 kmh 29.65 in1004.1 mb - 0.00 in0.0 mm 3.89 in98.8 mm
11:15 PM 55.4°F13.0°C 54.6°F12.6°C 97% 5.8 mph SE9.3 kmh SE 8.1 mph13.0 kmh 29.65 in1004.1 mb - 0.00 in0.0 mm 3.89 in98.8 mm
11:30 PM 55.1°F12.8°C 54.3°F12.4°C 97% 6.9 mph SSE11.1 kmh SSE 10.4 mph16.7 kmh 29.65 in1004.1 mb - 0.00 in0.0 mm 3.89 in98.8 mm
11:45 PM 55.2°F12.9°C 54.4°F12.4°C 97% 8.1 mph SSE13.0 kmh SSE 11.5 mph18.5 kmh 29.65 in1004.1 mb - 0.00 in0.0 mm 3.89 in98.8 mm